createdAt,value
2022-09-07T00:00:14.521Z,99.99
2022-09-07T00:01:14.552Z,99.99
2022-09-07T00:02:14.577Z,99.99
2022-09-07T00:03:14.714Z,99.99
2022-09-07T00:04:14.694Z,99.99
2022-09-07T00:05:14.665Z,99.99
2022-09-07T00:07:14.724Z,99.99
2022-09-07T00:08:14.753Z,99.99
2022-09-07T00:09:14.782Z,99.99
2022-09-07T00:10:14.812Z,99.99
2022-09-07T00:11:14.842Z,99.99
2022-09-07T00:12:14.868Z,99.99
2022-09-07T00:13:14.900Z,99.99
2022-09-07T00:14:14.925Z,99.99
2022-09-07T00:15:14.955Z,99.99
2022-09-07T00:17:15.617Z,99.99
2022-09-07T00:18:15.042Z,99.99
2022-09-07T00:19:15.071Z,99.99
2022-09-07T00:20:15.116Z,99.99
2022-09-07T00:21:15.128Z,99.99
2022-09-07T00:22:15.157Z,99.99
2022-09-07T00:23:15.185Z,99.99
2022-09-07T00:26:46.114Z,99.99
2022-09-07T00:28:46.171Z,99.99
2022-09-07T00:29:47.616Z,99.99
2022-09-07T00:32:46.287Z,99.99
2022-09-07T00:33:46.315Z,99.99
2022-09-07T00:34:46.549Z,99.99
2022-09-07T00:35:46.382Z,99.99
2022-09-07T00:36:46.406Z,99.99
2022-09-07T00:37:46.431Z,99.99
2022-09-07T00:38:46.462Z,99.99
2022-09-07T00:39:46.541Z,99.99
2022-09-07T00:40:46.520Z,99.99
2022-09-07T00:41:46.546Z,99.99
2022-09-07T00:42:46.577Z,99.99
2022-09-07T00:43:46.605Z,99.99
2022-09-07T00:44:46.635Z,99.99
2022-09-07T00:46:39.355Z,99.99
2022-09-07T00:47:39.269Z,99.99
2022-09-07T00:48:39.295Z,99.99
2022-09-07T00:49:39.328Z,99.99
2022-09-07T00:50:41.975Z,99.99
2022-09-07T00:51:39.598Z,99.99
2022-09-07T00:52:39.411Z,99.99
2022-09-07T00:53:39.441Z,99.99
2022-09-07T00:54:39.466Z,99.99
2022-09-07T00:55:39.497Z,99.99
2022-09-07T00:56:39.524Z,99.99
2022-09-07T00:57:39.554Z,99.99
2022-09-07T00:58:39.581Z,99.99
2022-09-07T00:59:39.615Z,99.99
2022-09-07T01:00:39.639Z,99.99
2022-09-07T01:01:39.780Z,99.99
2022-09-07T01:02:39.885Z,99.99
2022-09-07T01:03:39.728Z,99.99
2022-09-07T01:04:39.756Z,99.99
2022-09-07T01:05:39.785Z,99.99
2022-09-07T01:07:39.844Z,99.99
2022-09-07T01:08:39.871Z,99.99
2022-09-07T01:09:39.901Z,99.99
2022-09-07T01:10:39.928Z,99.99
2022-09-07T01:11:39.964Z,99.99
2022-09-07T01:12:39.990Z,99.99
2022-09-07T01:13:40.020Z,99.99
2022-09-07T01:14:40.043Z,99.99
2022-09-07T01:15:42.939Z,99.99
2022-09-07T01:16:42.720Z,99.99
2022-09-07T01:17:40.136Z,99.99
2022-09-07T01:18:40.151Z,99.99
2022-09-07T01:19:40.182Z,99.99
2022-09-07T01:20:40.211Z,99.99
2022-09-07T01:22:57.870Z,99.99
2022-09-07T01:23:57.918Z,99.99
2022-09-07T01:24:59.138Z,99.99
2022-09-07T01:25:57.958Z,99.99
2022-09-07T01:26:57.982Z,99.99
2022-09-07T01:27:58.028Z,99.99
2022-09-07T01:28:58.039Z,99.99
2022-09-07T01:29:58.276Z,99.99
2022-09-07T01:30:58.452Z,99.99
2022-09-07T01:31:58.331Z,99.99
2022-09-07T01:32:58.161Z,99.99
2022-09-07T01:33:58.389Z,99.99
2022-09-07T01:34:58.426Z,99.99
2022-09-07T01:36:58.272Z,99.99
2022-09-07T01:37:58.301Z,99.99
2022-09-07T01:38:58.326Z,99.99
2022-09-07T01:39:58.439Z,99.99
2022-09-07T01:40:58.388Z,99.99
2022-09-07T01:41:58.416Z,99.99
2022-09-07T01:42:58.442Z,99.99
2022-09-07T01:43:58.474Z,99.99
2022-09-07T01:44:58.501Z,99.99
2022-09-07T01:45:58.573Z,99.99
2022-09-07T01:46:58.562Z,99.99
2022-09-07T01:47:58.590Z,99.99
2022-09-07T01:48:58.617Z,99.99
2022-09-07T01:49:58.649Z,99.99
2022-09-07T01:50:58.676Z,99.99
2022-09-07T01:51:58.707Z,99.99
2022-09-07T01:55:38.133Z,99.99
2022-09-07T01:57:38.187Z,99.99
2022-09-07T01:59:38.453Z,99.99
2022-09-07T02:00:38.476Z,99.99
2022-09-07T02:01:38.688Z,99.99
2022-09-07T02:03:38.566Z,99.99
2022-09-07T02:06:38.438Z,99.99
2022-09-07T02:07:38.465Z,99.99
2022-09-07T02:08:38.498Z,99.99
2022-09-07T02:09:38.524Z,99.99
2022-09-07T02:10:38.555Z,99.99
2022-09-07T02:11:38.586Z,99.99
2022-09-07T02:12:38.824Z,99.99
2022-09-07T02:13:38.645Z,99.99
2022-09-07T02:14:38.675Z,99.99
2022-09-07T02:15:38.830Z,99.99
2022-09-07T02:16:38.732Z,99.99
2022-09-07T02:17:38.758Z,99.99
2022-09-07T02:18:38.795Z,99.99
2022-09-07T02:19:38.815Z,99.99
2022-09-07T02:20:38.867Z,99.99
2022-09-07T02:21:38.873Z,99.99
2022-09-07T02:22:38.902Z,99.99
2022-09-07T02:23:38.932Z,99.99
2022-09-07T02:25:21.511Z,99.99
2022-09-07T02:26:54.757Z,99.99
2022-09-07T02:27:21.571Z,99.99
2022-09-07T02:28:21.597Z,99.99
2022-09-07T02:29:21.627Z,99.99
2022-09-07T02:30:21.657Z,99.99
2022-09-07T02:31:21.759Z,99.99
2022-09-07T02:32:21.711Z,99.99
2022-09-07T02:33:24.364Z,99.99
2022-09-07T02:34:21.770Z,99.99
2022-09-07T02:35:21.799Z,99.99
2022-09-07T02:36:21.826Z,99.99
2022-09-07T02:37:21.857Z,99.99
2022-09-07T02:38:21.884Z,99.99
2022-09-07T02:39:21.916Z,99.99
2022-09-07T02:40:21.941Z,99.99
2022-09-07T02:41:21.974Z,99.99
2022-09-07T02:42:22.000Z,99.99
2022-09-07T02:43:22.032Z,99.99
2022-09-07T02:44:22.058Z,99.99
2022-09-07T02:45:22.090Z,99.99
2022-09-07T02:46:22.200Z,99.99
2022-09-07T02:47:22.150Z,99.99
2022-09-07T02:48:22.174Z,99.99
2022-09-07T02:49:22.206Z,99.99
2022-09-07T02:50:22.234Z,99.99
2022-09-07T02:51:22.264Z,99.99
2022-09-07T02:52:24.911Z,99.99
2022-09-07T02:53:22.320Z,99.99
2022-09-07T02:54:22.348Z,99.99
2022-09-07T02:55:22.379Z,99.99
2022-09-07T02:56:22.406Z,99.99
2022-09-07T02:57:22.438Z,99.99
2022-09-07T02:58:22.464Z,99.99
2022-09-07T02:59:22.496Z,99.99
2022-09-07T03:00:22.521Z,99.99
2022-09-07T03:01:22.726Z,99.99
2022-09-07T03:02:22.660Z,99.99
2022-09-07T03:03:22.611Z,99.99
2022-09-07T03:04:23.445Z,99.99
2022-09-07T03:05:22.671Z,99.99
2022-09-07T03:06:22.697Z,99.99
2022-09-07T03:07:22.728Z,99.99
2022-09-07T03:08:22.755Z,99.99
2022-09-07T03:09:22.785Z,99.99
2022-09-07T03:10:22.816Z,99.99
2022-09-07T03:11:22.842Z,99.99
2022-09-07T03:12:22.868Z,99.99
2022-09-07T03:13:22.900Z,99.99
2022-09-07T03:14:22.926Z,99.99
2022-09-07T03:15:23.015Z,99.99
2022-09-07T03:16:23.036Z,99.99
2022-09-07T03:17:23.016Z,99.99
2022-09-07T03:18:23.042Z,99.99
2022-09-07T03:19:23.077Z,99.99
2022-09-07T03:20:23.113Z,99.99
2022-09-07T03:21:23.131Z,99.99
2022-09-07T03:22:23.158Z,99.99
2022-09-07T03:23:23.188Z,99.99
2022-09-07T03:24:23.214Z,99.99
2022-09-07T03:25:23.249Z,99.99
2022-09-07T03:26:23.273Z,99.99
2022-09-07T03:27:23.302Z,99.99
2022-09-07T03:28:23.329Z,99.99
2022-09-07T03:29:23.361Z,99.99
2022-09-07T03:30:23.390Z,99.99
2022-09-07T03:31:23.479Z,99.99
2022-09-07T03:32:23.446Z,99.99
2022-09-07T03:33:23.478Z,99.99
2022-09-07T03:34:23.505Z,99.99
2022-09-07T03:35:23.534Z,99.99
2022-09-07T03:36:23.560Z,99.99
2022-09-07T03:37:23.592Z,99.99
2022-09-07T03:38:23.621Z,99.99
2022-09-07T03:39:23.650Z,99.99
2022-09-07T03:40:23.678Z,99.99
2022-09-07T03:41:23.710Z,99.99
2022-09-07T03:42:23.736Z,99.99
2022-09-07T03:43:23.766Z,99.99
2022-09-07T03:44:23.796Z,99.99
2022-09-07T03:45:23.840Z,99.99
2022-09-07T03:46:26.541Z,99.99
2022-09-07T03:47:23.923Z,99.99
2022-09-07T03:48:23.993Z,99.99
2022-09-07T03:49:23.937Z,99.99
2022-09-07T03:50:23.964Z,99.99
2022-09-07T03:51:23.995Z,99.99
2022-09-07T03:52:24.021Z,99.99
2022-09-07T03:53:24.053Z,99.99
2022-09-07T03:54:24.080Z,99.99
2022-09-07T03:55:24.111Z,99.99
2022-09-07T03:56:24.142Z,99.99
2022-09-07T03:57:24.167Z,99.99
2022-09-07T03:58:24.195Z,99.99
2022-09-07T03:59:24.227Z,99.99
2022-09-07T04:00:24.253Z,99.99
2022-09-07T04:01:24.353Z,99.99
2022-09-07T04:02:24.359Z,99.99
2022-09-07T04:03:24.342Z,99.99
2022-09-07T04:04:24.371Z,99.99
2022-09-07T04:05:24.399Z,99.99
2022-09-07T04:06:24.430Z,99.99
2022-09-07T04:07:24.457Z,99.99
2022-09-07T04:08:24.487Z,99.99
2022-09-07T04:09:24.515Z,99.99
2022-09-07T04:10:24.541Z,99.99
2022-09-07T04:11:24.573Z,99.99
2022-09-07T04:12:24.601Z,99.99
2022-09-07T04:13:24.630Z,99.99
2022-09-07T04:14:24.658Z,99.99
2022-09-07T04:15:24.690Z,99.99
2022-09-07T04:16:24.765Z,99.99
2022-09-07T04:17:24.747Z,99.99
2022-09-07T04:18:24.881Z,99.99
2022-09-07T04:19:24.803Z,99.99
2022-09-07T04:20:24.829Z,99.99
2022-09-07T04:21:24.860Z,99.99
2022-09-07T04:22:24.895Z,99.99
2022-09-07T04:23:24.919Z,99.99
2022-09-07T04:24:24.945Z,99.99
2022-09-07T04:25:24.976Z,99.99
2022-09-07T04:26:25.005Z,99.99
2022-09-07T04:27:25.032Z,99.99
2022-09-07T04:28:25.098Z,99.99
2022-09-07T04:29:25.092Z,99.99
2022-09-07T04:30:25.121Z,99.99
2022-09-07T04:31:25.219Z,99.99
2022-09-07T04:32:25.176Z,99.99
2022-09-07T04:33:25.209Z,99.99
2022-09-07T04:34:25.235Z,99.99
2022-09-07T04:35:25.265Z,99.99
2022-09-07T04:36:25.291Z,99.99
2022-09-07T04:37:25.323Z,99.99
2022-09-07T04:38:25.390Z,99.99
2022-09-07T04:39:25.551Z,99.99
2022-09-07T04:40:25.407Z,99.99
2022-09-07T04:41:25.438Z,99.99
2022-09-07T04:42:25.465Z,99.99
2022-09-07T04:43:25.496Z,99.99
2022-09-07T04:44:25.520Z,99.99
2022-09-07T04:45:25.552Z,99.99
2022-09-07T04:46:25.678Z,99.99
2022-09-07T04:47:25.612Z,99.99
2022-09-07T04:48:25.637Z,99.99
2022-09-07T04:49:25.668Z,99.99
2022-09-07T04:50:25.696Z,99.99
2022-09-07T04:51:25.726Z,99.99
2022-09-07T04:52:25.752Z,99.99
2022-09-07T04:53:25.784Z,99.99
2022-09-07T04:54:25.810Z,99.99
2022-09-07T04:55:25.840Z,99.99
2022-09-07T04:56:25.866Z,99.99
2022-09-07T04:57:25.922Z,99.99
2022-09-07T04:58:25.926Z,99.99
2022-09-07T04:59:25.957Z,99.99
2022-09-07T05:00:25.981Z,99.99
2022-09-07T05:01:26.228Z,99.99
2022-09-07T05:02:26.103Z,99.99
2022-09-07T05:03:26.071Z,99.99
2022-09-07T05:04:26.097Z,99.99
2022-09-07T05:05:26.128Z,99.99
2022-09-07T05:06:26.156Z,99.99
2022-09-07T05:07:26.185Z,99.99
2022-09-07T05:08:26.213Z,99.99
2022-09-07T05:09:26.242Z,99.99
2022-09-07T05:10:26.271Z,99.99
2022-09-07T05:11:29.190Z,99.99
2022-09-07T05:12:26.331Z,99.99
2022-09-07T05:13:26.363Z,99.99
2022-09-07T05:14:26.385Z,99.99
2022-09-07T05:15:26.414Z,99.99
2022-09-07T05:16:26.489Z,99.99
2022-09-07T05:17:26.471Z,99.99
2022-09-07T05:18:26.639Z,99.99
2022-09-07T05:19:26.530Z,99.99
2022-09-07T05:20:26.556Z,99.99
2022-09-07T05:21:26.587Z,99.99
2022-09-07T05:22:26.613Z,99.99
2022-09-07T05:23:26.647Z,99.99
2022-09-07T05:24:26.671Z,99.99
2022-09-07T05:25:26.704Z,99.99
2022-09-07T05:26:26.729Z,99.99
2022-09-07T05:27:26.761Z,99.99
2022-09-07T05:28:26.824Z,99.99
2022-09-07T05:31:26.876Z,99.99
2022-09-07T05:32:26.906Z,99.99
2022-09-07T05:35:26.990Z,99.99
2022-09-07T05:36:27.018Z,99.99
2022-09-07T05:37:27.048Z,99.99
2022-09-07T05:38:27.136Z,99.99
2022-09-07T05:39:27.244Z,99.99
2022-09-07T05:40:27.135Z,99.99
2022-09-07T05:41:27.163Z,99.99
2022-09-07T05:42:27.191Z,99.99
2022-09-07T05:43:27.222Z,99.99
2022-09-07T05:45:27.347Z,99.99
2022-09-07T05:46:27.321Z,99.99
2022-09-07T05:47:27.340Z,99.99
2022-09-07T05:48:27.436Z,99.99
2022-09-07T05:49:27.396Z,99.99
2022-09-07T05:50:27.447Z,99.99
2022-09-07T05:51:27.471Z,99.99
2022-09-07T05:52:27.479Z,99.99
2022-09-07T05:53:27.511Z,99.99
2022-09-07T05:54:27.539Z,99.99
2022-09-07T05:55:30.307Z,99.99
2022-09-07T05:56:27.599Z,99.99
2022-09-07T05:57:27.627Z,99.99
2022-09-07T05:58:27.701Z,99.99
2022-09-07T05:59:27.697Z,99.99
2022-09-07T06:00:27.723Z,99.99
2022-09-07T06:01:28.064Z,99.99
2022-09-07T06:03:27.869Z,99.99
2022-09-07T06:05:27.861Z,99.99
2022-09-07T06:06:27.890Z,99.99
2022-09-07T06:07:27.919Z,99.99
2022-09-07T06:08:27.962Z,99.99
2022-09-07T06:09:30.558Z,99.99
2022-09-07T06:10:43.389Z,99.99
2022-09-07T06:11:28.037Z,99.99
2022-09-07T06:12:28.067Z,99.99
2022-09-07T06:13:28.205Z,99.99
2022-09-07T06:14:28.126Z,99.99
2022-09-07T06:15:28.154Z,99.99
2022-09-07T06:16:28.329Z,99.99
2022-09-07T06:17:28.214Z,99.99
2022-09-07T06:18:28.241Z,99.99
2022-09-07T06:19:28.272Z,99.99
2022-09-07T06:20:28.299Z,99.99
2022-09-07T06:21:28.330Z,99.99
2022-09-07T06:22:31.046Z,99.99
2022-09-07T06:23:28.438Z,99.99
2022-09-07T06:24:28.417Z,99.99
2022-09-07T06:25:28.448Z,99.99
2022-09-07T06:26:28.477Z,99.99
2022-09-07T06:27:28.507Z,99.99
2022-09-07T06:28:28.533Z,99.99
2022-09-07T06:29:28.566Z,99.99
2022-09-07T06:30:28.594Z,99.99
2022-09-07T06:31:28.934Z,99.99
2022-09-07T06:32:44.585Z,99.99
2022-09-07T06:33:28.791Z,99.99
2022-09-07T06:34:28.711Z,99.99
2022-09-07T06:35:28.744Z,99.99
2022-09-07T06:36:28.771Z,99.99
2022-09-07T06:37:28.802Z,99.99
2022-09-07T06:38:31.796Z,99.99
2022-09-07T06:39:28.901Z,99.99
2022-09-07T06:40:28.889Z,99.99
2022-09-07T06:42:28.949Z,99.99
2022-09-07T06:43:29.013Z,99.99
2022-09-07T06:44:29.008Z,99.99
2022-09-07T06:45:29.086Z,99.99
2022-09-07T06:47:29.098Z,99.99
2022-09-07T06:48:29.129Z,99.99
2022-09-07T06:49:29.152Z,99.99
2022-09-07T06:50:29.189Z,99.99
2022-09-07T06:51:29.215Z,99.99
2022-09-07T06:52:29.387Z,99.99
2022-09-07T06:53:37.641Z,99.99
2022-09-07T06:55:29.340Z,99.99
2022-09-07T06:56:29.365Z,99.99
2022-09-07T06:57:29.395Z,99.99
2022-09-07T06:58:29.461Z,99.99
2022-09-07T06:59:29.455Z,99.99
2022-09-07T07:00:29.503Z,99.99
2022-09-07T07:01:29.541Z,99.99
2022-09-07T07:02:29.545Z,99.99
2022-09-07T07:03:29.674Z,99.99
2022-09-07T07:04:29.606Z,99.99
2022-09-07T07:05:29.633Z,99.99
2022-09-07T07:06:29.667Z,99.99
2022-09-07T07:07:29.695Z,99.99
2022-09-07T07:08:29.776Z,99.99
2022-09-07T07:09:29.755Z,99.99
2022-09-07T07:10:29.786Z,99.99
2022-09-07T07:11:29.814Z,99.99
2022-09-07T07:13:09.325Z,99.99
2022-09-07T07:14:13.394Z,99.99
2022-09-07T07:15:09.387Z,99.99
2022-09-07T07:16:09.444Z,99.99
2022-09-07T07:17:09.445Z,99.99
2022-09-07T07:18:20.889Z,99.99
2022-09-07T07:19:09.506Z,99.99
2022-09-07T07:20:09.538Z,99.99
2022-09-07T07:21:09.571Z,99.99
2022-09-07T07:22:45.407Z,99.99
2022-09-07T07:23:09.628Z,99.99
2022-09-07T07:24:09.660Z,99.99
2022-09-07T07:25:09.689Z,99.99
2022-09-07T07:26:09.723Z,99.99
2022-09-07T07:27:09.764Z,99.99
2022-09-07T07:29:09.814Z,99.99
2022-09-07T07:30:09.850Z,99.99
2022-09-07T07:31:12.178Z,99.99
2022-09-07T07:32:09.910Z,99.99
2022-09-07T07:33:09.994Z,99.99
2022-09-07T07:34:10.052Z,99.99
2022-09-07T07:35:10.002Z,99.99
2022-09-07T07:36:10.034Z,99.99
2022-09-07T07:37:10.065Z,99.99
2022-09-07T07:42:10.225Z,99.99
2022-09-07T07:43:10.253Z,99.99
2022-09-07T07:44:10.286Z,99.99
2022-09-07T07:46:10.398Z,99.99
2022-09-07T07:47:10.381Z,99.99
2022-09-07T07:48:10.415Z,99.99
2022-09-07T07:49:10.444Z,99.99
2022-09-07T07:51:12.086Z,99.99
2022-09-07T07:54:10.607Z,99.99
2022-09-07T07:56:10.671Z,99.99
2022-09-07T07:57:10.700Z,99.99
2022-09-07T07:58:10.736Z,99.99
2022-09-07T07:59:15.126Z,99.99
2022-09-07T08:00:10.801Z,99.99
2022-09-07T08:01:10.900Z,99.99
2022-09-07T08:02:10.946Z,99.99
2022-09-07T08:03:10.898Z,99.99
2022-09-07T08:04:10.931Z,99.99
2022-09-07T08:05:10.963Z,99.99
2022-09-07T08:06:11.016Z,99.99
2022-09-07T08:07:11.444Z,99.99
2022-09-07T08:08:11.062Z,99.99
2022-09-07T08:09:11.099Z,99.99
2022-09-07T08:10:11.127Z,99.99
2022-09-07T08:11:11.161Z,99.99
2022-09-07T08:12:11.286Z,99.99
2022-09-07T08:13:11.223Z,99.99
2022-09-07T08:14:11.259Z,99.99
2022-09-07T08:15:11.289Z,99.99
2022-09-07T08:16:11.365Z,99.99
2022-09-07T08:17:11.356Z,99.99
2022-09-07T08:18:11.391Z,99.99
2022-09-07T08:19:11.421Z,99.99
2022-09-07T08:20:11.467Z,99.99
2022-09-07T08:21:11.488Z,99.99
2022-09-07T08:22:11.540Z,99.99
2022-09-07T08:23:11.574Z,99.99
2022-09-07T08:24:11.587Z,99.99
2022-09-07T08:25:11.618Z,99.99
2022-09-07T08:26:11.655Z,99.99
2022-09-07T08:27:11.687Z,99.99
2022-09-07T08:28:11.725Z,99.99
2022-09-07T08:29:11.753Z,99.99
2022-09-07T08:30:11.787Z,99.99
2022-09-07T08:31:11.884Z,99.99
2022-09-07T08:32:11.854Z,99.99
2022-09-07T08:33:11.886Z,99.99
2022-09-07T08:34:11.922Z,99.99
2022-09-07T08:35:11.953Z,99.99
2022-09-07T08:36:11.988Z,99.99
2022-09-07T08:37:12.020Z,99.99
2022-09-07T08:38:12.074Z,99.99
2022-09-07T08:39:12.087Z,99.99
2022-09-07T08:40:12.175Z,99.99
2022-09-07T08:41:12.155Z,99.99
2022-09-07T08:42:15.419Z,99.99
2022-09-07T08:43:12.220Z,99.99
2022-09-07T08:44:12.253Z,99.99
2022-09-07T08:45:12.286Z,99.99
2022-09-07T08:46:12.376Z,99.99
2022-09-07T08:47:12.366Z,99.99
2022-09-07T08:48:12.387Z,99.99
2022-09-07T08:49:12.623Z,99.99
2022-09-07T08:50:12.453Z,99.99
2022-09-07T08:51:12.484Z,99.99
2022-09-07T08:52:12.519Z,99.99
2022-09-07T08:53:12.554Z,99.99
2022-09-07T08:54:12.654Z,99.99
2022-09-07T08:55:12.667Z,99.99
2022-09-07T08:56:12.650Z,99.99
2022-09-07T08:57:28.037Z,99.99
2022-09-07T08:58:27.124Z,99.99
2022-09-07T08:59:12.749Z,99.99
2022-09-07T09:00:12.784Z,99.99
2022-09-07T09:02:28.977Z,99.99
2022-09-07T09:03:29.003Z,99.99
2022-09-07T09:04:17.068Z,99.99
2022-09-07T09:05:17.441Z,99.99
2022-09-07T09:06:13.384Z,99.99
2022-09-07T09:07:13.015Z,99.99
2022-09-07T09:08:13.051Z,99.99
2022-09-07T09:09:13.082Z,99.99
2022-09-07T09:10:13.135Z,99.99
2022-09-07T09:11:13.150Z,99.99
2022-09-07T09:12:13.185Z,99.99
2022-09-07T09:13:13.218Z,99.99
2022-09-07T09:14:13.254Z,99.99
2022-09-07T09:15:13.286Z,99.99
2022-09-07T09:16:13.399Z,99.99
2022-09-07T09:17:13.352Z,99.99
2022-09-07T09:18:14.500Z,99.99
2022-09-07T09:19:13.421Z,99.99
2022-09-07T09:20:13.458Z,99.99
2022-09-07T09:21:13.497Z,99.99
2022-09-07T09:22:13.525Z,99.99
2022-09-07T09:24:13.613Z,99.99
2022-09-07T09:33:13.918Z,99.99
2022-09-07T09:38:14.087Z,99.99
2022-09-07T10:10:15.391Z,99.99
2022-09-07T10:18:15.445Z,99.99
2022-09-07T10:19:15.482Z,99.99
2022-09-07T10:20:15.527Z,99.99
2022-09-07T10:22:58.141Z,99.22
2022-09-07T10:23:58.174Z,98.44
2022-09-07T10:24:58.210Z,96.26
2022-09-07T10:25:58.260Z,97.03
2022-09-07T10:26:58.276Z,96.94
2022-09-07T10:27:58.313Z,99.99
2022-09-07T10:29:14.480Z,99.99
2022-09-07T10:29:58.380Z,98.63
2022-09-07T10:30:58.434Z,99.12
2022-09-07T10:31:58.452Z,96.69
2022-09-07T10:32:58.483Z,96.89
2022-09-07T10:34:27.177Z,97.66
2022-09-07T10:34:58.551Z,98.97
2022-09-07T10:35:58.591Z,99.99
2022-09-07T10:36:58.621Z,99.17
2022-09-07T10:37:58.659Z,98.58
2022-09-07T10:38:58.690Z,98.49
2022-09-07T10:40:00.606Z,96.36
2022-09-07T10:40:58.762Z,96.64
2022-09-07T10:41:58.813Z,96.50
2022-09-07T10:43:28.752Z,94.07
2022-09-07T10:43:58.864Z,94.26
2022-09-07T10:51:05.130Z,90.61
2022-09-07T10:51:59.138Z,90.71
2022-09-07T10:52:59.395Z,90.85
2022-09-07T10:55:59.276Z,89.35
2022-09-07T10:56:59.530Z,90.02
2022-09-07T10:57:59.614Z,89.19
2022-09-07T10:59:03.562Z,88.51
2022-09-07T11:00:14.682Z,88.02
2022-09-07T11:00:59.667Z,86.76
2022-09-07T11:01:59.495Z,86.85
2022-09-07T11:04:00.517Z,86.76
2022-09-07T11:04:59.604Z,88.12
2022-09-07T11:05:59.845Z,88.12
2022-09-07T11:07:59.708Z,85.83
2022-09-07T11:09:17.052Z,87.68
2022-09-07T11:10:00.290Z,87.39
2022-09-07T11:10:59.815Z,87.25
2022-09-07T11:12:01.350Z,89.39
2022-09-07T11:15:00.159Z,87.40
2022-09-07T11:16:00.375Z,87.89
2022-09-07T11:18:00.308Z,89.31
2022-09-07T11:20:00.435Z,90.52
2022-09-07T11:21:00.158Z,90.82
2022-09-07T11:22:00.906Z,92.52
2022-09-07T11:24:00.466Z,90.53
2022-09-07T11:25:30.692Z,90.58
2022-09-07T11:26:00.332Z,92.47
2022-09-07T11:27:01.078Z,92.38
2022-09-07T11:28:00.901Z,94.46
2022-09-07T11:30:00.667Z,91.55
2022-09-07T11:32:00.561Z,90.58
2022-09-07T11:35:00.641Z,93.79
2022-09-07T11:36:00.670Z,94.81
2022-09-07T11:37:01.014Z,95.48
2022-09-07T11:38:01.433Z,96.02
2022-09-07T11:39:02.095Z,97.08
2022-09-07T11:42:01.790Z,98.30
2022-09-07T11:43:01.200Z,99.17
2022-09-07T11:45:00.984Z,99.99
2022-09-07T11:46:01.079Z,99.99
2022-09-07T11:47:01.034Z,99.99
2022-09-07T11:48:01.092Z,97.71
2022-09-07T11:49:01.945Z,97.42
2022-09-07T11:50:01.129Z,98.30
2022-09-07T11:51:01.159Z,98.30
2022-09-07T11:52:04.965Z,98.54
2022-09-07T11:53:01.224Z,98.93
2022-09-07T11:54:01.259Z,97.96
2022-09-07T11:55:01.294Z,96.84
2022-09-07T11:56:01.324Z,95.97
2022-09-07T11:57:01.356Z,97.03
2022-09-07T11:58:01.390Z,96.45
2022-09-07T11:59:01.421Z,97.52
2022-09-07T12:00:01.457Z,95.48
2022-09-07T12:01:01.487Z,95.48
2022-09-07T12:02:01.521Z,95.58
2022-09-07T12:03:01.633Z,96.41
2022-09-07T12:04:01.722Z,97.18
2022-09-07T12:05:01.648Z,94.51
2022-09-07T12:06:01.652Z,94.66
2022-09-07T12:07:01.698Z,94.51
2022-09-07T12:08:01.722Z,94.51
2022-09-07T12:09:01.755Z,94.80
2022-09-07T12:10:01.784Z,93.88
2022-09-07T12:11:01.820Z,94.12
2022-09-07T12:12:01.852Z,93.40
2022-09-07T12:13:01.898Z,93.44
2022-09-07T12:14:01.918Z,94.12
2022-09-07T12:15:01.951Z,93.73
2022-09-07T12:16:02.029Z,94.66
2022-09-07T12:17:02.017Z,95.63
2022-09-07T12:18:02.251Z,96.64
2022-09-07T12:19:02.082Z,95.77
2022-09-07T12:20:02.441Z,96.36
2022-09-07T12:21:02.147Z,96.26
2022-09-07T12:22:02.287Z,96.36
2022-09-07T12:23:04.818Z,96.45
2022-09-07T12:24:02.259Z,96.55
2022-09-07T12:25:02.286Z,96.84
2022-09-07T12:26:02.315Z,96.59
2022-09-07T12:27:02.366Z,95.72
2022-09-07T12:28:02.386Z,94.65
2022-09-07T12:29:02.415Z,95.48
2022-09-07T12:30:02.448Z,96.55
2022-09-07T12:31:02.566Z,96.06
2022-09-07T12:33:02.594Z,95.29
2022-09-07T12:34:02.592Z,96.89
2022-09-07T12:35:02.619Z,95.87
2022-09-07T12:36:02.669Z,96.55
2022-09-07T12:37:02.679Z,97.23
2022-09-07T12:38:02.713Z,95.97
2022-09-07T12:39:02.744Z,97.08
2022-09-07T12:40:02.953Z,95.92
2022-09-07T12:41:02.815Z,95.92
2022-09-07T12:43:09.702Z,97.08
2022-09-07T12:44:02.913Z,96.69
2022-09-07T12:45:02.947Z,97.42
2022-09-07T12:46:03.089Z,97.71
2022-09-07T12:47:03.013Z,99.17
2022-09-07T12:48:04.562Z,98.58
2022-09-07T12:49:03.078Z,97.28
2022-09-07T12:50:03.111Z,95.77
2022-09-07T12:51:03.144Z,94.32
2022-09-07T12:52:11.419Z,94.17
2022-09-07T12:53:03.210Z,93.49
2022-09-07T12:54:03.264Z,94.36
2022-09-07T12:55:26.765Z,94.75
2022-09-07T12:56:18.670Z,95.14
2022-09-07T12:58:03.378Z,95.39
2022-09-07T12:59:03.408Z,96.16
2022-09-07T13:00:03.442Z,96.26
2022-09-07T13:01:05.525Z,96.31
2022-09-07T13:02:03.604Z,96.01
2022-09-07T13:03:04.293Z,94.26
2022-09-07T13:04:03.575Z,94.07
2022-09-07T13:05:03.606Z,93.88
2022-09-07T13:06:03.642Z,93.78
2022-09-07T13:07:03.868Z,92.61
2022-09-07T13:08:08.685Z,93.29
2022-09-07T13:09:03.770Z,93.88
2022-09-07T13:10:03.774Z,93.88
2022-09-07T13:11:03.806Z,94.36
2022-09-07T13:12:03.842Z,93.29
2022-09-07T13:13:03.874Z,94.26
2022-09-07T13:14:05.359Z,94.17
2022-09-07T13:15:04.648Z,91.84
2022-09-07T13:16:04.065Z,92.61
2022-09-07T13:17:19.524Z,93.29
2022-09-07T13:18:04.056Z,94.26
2022-09-07T13:19:04.087Z,94.17
2022-09-07T13:20:04.121Z,93.15
2022-09-07T13:21:04.155Z,91.55
2022-09-07T13:22:04.193Z,91.59
2022-09-07T13:24:45.789Z,91.89
2022-09-07T13:25:04.477Z,92.18
2022-09-07T13:27:04.554Z,92.62
2022-09-07T13:28:05.974Z,92.82
2022-09-07T13:29:04.415Z,93.59
2022-09-07T13:30:04.454Z,93.40
2022-09-07T13:31:05.156Z,93.01
2022-09-07T13:32:04.574Z,92.77
2022-09-07T13:33:08.319Z,93.49
2022-09-07T13:35:05.023Z,91.94
2022-09-07T13:36:04.649Z,92.47
2022-09-07T13:37:05.585Z,92.28
2022-09-07T13:38:04.926Z,92.57
2022-09-07T13:39:04.749Z,90.63
2022-09-07T13:40:05.038Z,90.48
2022-09-07T13:41:04.841Z,91.27
2022-09-07T13:42:04.849Z,90.58
2022-09-07T13:44:04.921Z,92.18
2022-09-07T13:46:05.205Z,90.53
2022-09-07T13:48:05.048Z,89.51
2022-09-07T13:49:05.688Z,89.03
2022-09-07T13:50:05.120Z,88.34
2022-09-07T13:51:05.145Z,88.39
2022-09-07T13:52:05.899Z,87.41
2022-09-07T13:54:05.243Z,87.90
2022-09-07T13:56:05.727Z,87.41
2022-09-07T14:00:05.447Z,87.90
2022-09-07T14:01:05.528Z,87.61
2022-09-07T14:02:05.745Z,86.54
2022-09-07T14:04:05.790Z,86.64
2022-09-07T14:05:05.907Z,85.38
2022-09-07T14:07:05.674Z,85.47
2022-09-07T14:08:05.711Z,85.47
2022-09-07T14:09:05.744Z,85.38
2022-09-07T14:11:05.816Z,84.07
2022-09-07T14:12:05.867Z,84.85
2022-09-07T14:14:06.218Z,85.92
2022-09-07T14:15:09.096Z,85.14
2022-09-07T14:16:06.182Z,85.04
2022-09-07T14:17:06.112Z,85.92
2022-09-07T14:18:06.248Z,85.96
2022-09-07T14:19:06.467Z,87.41
2022-09-07T14:21:06.154Z,83.82
2022-09-07T14:23:06.614Z,84.11
2022-09-07T14:24:06.448Z,84.25
2022-09-07T14:25:06.274Z,84.74
2022-09-07T14:26:21.815Z,83.96
2022-09-07T14:27:06.559Z,83.09
2022-09-07T14:29:06.636Z,82.60
2022-09-07T14:30:06.439Z,81.73
2022-09-07T14:31:06.526Z,82.89
2022-09-07T14:33:06.594Z,83.09
2022-09-07T14:34:06.794Z,83.53
2022-09-07T14:36:29.481Z,82.85
2022-09-07T14:37:06.883Z,82.75
2022-09-07T14:39:06.793Z,83.14
2022-09-07T14:40:07.499Z,83.10
2022-09-07T14:41:06.807Z,82.71
2022-09-07T14:42:07.705Z,83.29
2022-09-07T14:44:06.914Z,84.56
2022-09-07T14:45:06.951Z,85.58
2022-09-07T14:46:07.050Z,84.32
2022-09-07T14:48:07.249Z,85.29
2022-09-07T14:49:08.287Z,85.39
2022-09-07T14:51:29.491Z,85.88
2022-09-07T14:52:07.175Z,85.54
2022-09-07T14:53:37.694Z,86.71
2022-09-07T14:54:07.239Z,86.71
2022-09-07T14:55:07.564Z,87.48
2022-09-07T14:56:07.508Z,87.29
2022-09-07T14:57:07.342Z,85.93
2022-09-07T14:59:07.607Z,86.99
2022-09-07T15:00:08.042Z,86.41
2022-09-07T15:02:07.562Z,87.77
2022-09-07T15:03:07.545Z,87.68
2022-09-07T15:04:07.626Z,87.29
2022-09-07T15:05:08.831Z,87.38
2022-09-07T15:06:07.808Z,88.45
2022-09-07T15:07:07.658Z,87.48
2022-09-07T15:08:07.685Z,86.32
2022-09-07T15:09:07.720Z,86.51
2022-09-07T15:10:07.749Z,86.12
2022-09-07T15:11:37.446Z,86.41
2022-09-07T15:12:07.817Z,85.54
2022-09-07T15:13:07.849Z,86.12
2022-09-07T15:14:07.885Z,86.51
2022-09-07T15:15:07.920Z,87.38
2022-09-07T15:16:07.974Z,85.88
2022-09-07T15:18:09.221Z,85.68
2022-09-07T15:19:08.044Z,86.07